sensor_id;sensor_type;location;lat;lon;timestamp;P1;durP1;ratioP1;P2;durP2;ratioP2
4957;SDS011;2494;51.872;9.688;2023-05-31T00:00:18;11.90;;;8.60;;
4957;SDS011;2494;51.872;9.688;2023-05-31T00:03:03;11.70;;;9.00;;
4957;SDS011;2494;51.872;9.688;2023-05-31T00:05:48;11.53;;;8.17;;
4957;SDS011;2494;51.872;9.688;2023-05-31T00:08:34;10.17;;;8.77;;
4957;SDS011;2494;51.872;9.688;2023-05-31T00:11:20;10.50;;;8.13;;
4957;SDS011;2494;51.872;9.688;2023-05-31T00:14:05;7.90;;;7.10;;
4957;SDS011;2494;51.872;9.688;2023-05-31T00:16:51;7.77;;;6.97;;
4957;SDS011;2494;51.872;9.688;2023-05-31T00:19:37;8.50;;;7.70;;
4957;SDS011;2494;51.872;9.688;2023-05-31T00:22:22;7.73;;;7.03;;
4957;SDS011;2494;51.872;9.688;2023-05-31T00:25:07;9.30;;;6.93;;
4957;SDS011;2494;51.872;9.688;2023-05-31T00:27:54;8.50;;;7.27;;
4957;SDS011;2494;51.872;9.688;2023-05-31T00:30:39;13.90;;;7.90;;
4957;SDS011;2494;51.872;9.688;2023-05-31T00:33:24;12.33;;;8.70;;
4957;SDS011;2494;51.872;9.688;2023-05-31T00:36:09;9.17;;;8.27;;
4957;SDS011;2494;51.872;9.688;2023-05-31T00:38:54;9.27;;;8.37;;
4957;SDS011;2494;51.872;9.688;2023-05-31T00:41:38;11.97;;;8.00;;
4957;SDS011;2494;51.872;9.688;2023-05-31T00:44:25;9.40;;;8.03;;
4957;SDS011;2494;51.872;9.688;2023-05-31T00:47:10;10.63;;;7.77;;
4957;SDS011;2494;51.872;9.688;2023-05-31T00:49:55;14.60;;;8.53;;
4957;SDS011;2494;51.872;9.688;2023-05-31T00:52:40;8.83;;;7.90;;
4957;SDS011;2494;51.872;9.688;2023-05-31T00:55:26;8.83;;;7.93;;
4957;SDS011;2494;51.872;9.688;2023-05-31T00:58:11;11.30;;;8.17;;
4957;SDS011;2494;51.872;9.688;2023-05-31T01:00:58;10.53;;;8.10;;
4957;SDS011;2494;51.872;9.688;2023-05-31T01:03:43;9.07;;;7.93;;
4957;SDS011;2494;51.872;9.688;2023-05-31T01:06:28;13.03;;;8.57;;
4957;SDS011;2494;51.872;9.688;2023-05-31T01:09:15;10.30;;;7.93;;
4957;SDS011;2494;51.872;9.688;2023-05-31T01:12:04;12.30;;;9.43;;
4957;SDS011;2494;51.872;9.688;2023-05-31T01:14:58;12.40;;;11.20;;
4957;SDS011;2494;51.872;9.688;2023-05-31T01:17:48;10.83;;;9.67;;
4957;SDS011;2494;51.872;9.688;2023-05-31T01:20:37;15.90;;;11.20;;
4957;SDS011;2494;51.872;9.688;2023-05-31T01:23:31;15.93;;;12.50;;
4957;SDS011;2494;51.872;9.688;2023-05-31T01:26:30;21.90;;;13.60;;
4957;SDS011;2494;51.872;9.688;2023-05-31T01:29:18;15.60;;;10.63;;
4957;SDS011;2494;51.872;9.688;2023-05-31T01:32:04;14.77;;;10.23;;
4957;SDS011;2494;51.872;9.688;2023-05-31T01:34:49;16.87;;;13.70;;
4957;SDS011;2494;51.872;9.688;2023-05-31T01:37:34;12.70;;;11.50;;
4957;SDS011;2494;51.872;9.688;2023-05-31T01:40:19;14.33;;;12.83;;
4957;SDS011;2494;51.872;9.688;2023-05-31T01:43:06;17.80;;;14.60;;
4957;SDS011;2494;51.872;9.688;2023-05-31T01:45:51;18.20;;;13.63;;
4957;SDS011;2494;51.872;9.688;2023-05-31T01:48:37;12.30;;;10.50;;
4957;SDS011;2494;51.872;9.688;2023-05-31T01:51:22;13.40;;;9.27;;
4957;SDS011;2494;51.872;9.688;2023-05-31T01:54:07;11.50;;;8.53;;
4957;SDS011;2494;51.872;9.688;2023-05-31T01:56:52;11.90;;;9.40;;
4957;SDS011;2494;51.872;9.688;2023-05-31T01:59:38;8.87;;;8.00;;
4957;SDS011;2494;51.872;9.688;2023-05-31T02:02:24;9.50;;;7.53;;
4957;SDS011;2494;51.872;9.688;2023-05-31T02:05:10;8.70;;;7.87;;
4957;SDS011;2494;51.872;9.688;2023-05-31T02:07:56;10.80;;;8.13;;
4957;SDS011;2494;51.872;9.688;2023-05-31T02:10:41;10.03;;;8.00;;
4957;SDS011;2494;51.872;9.688;2023-05-31T02:13:27;9.03;;;8.13;;
4957;SDS011;2494;51.872;9.688;2023-05-31T02:16:13;10.40;;;7.30;;
4957;SDS011;2494;51.872;9.688;2023-05-31T02:18:58;10.80;;;7.77;;
4957;SDS011;2494;51.872;9.688;2023-05-31T02:21:44;6.50;;;5.97;;
4957;SDS011;2494;51.872;9.688;2023-05-31T02:24:29;13.93;;;7.47;;
4957;SDS011;2494;51.872;9.688;2023-05-31T02:27:15;8.10;;;7.30;;
4957;SDS011;2494;51.872;9.688;2023-05-31T02:30:00;10.10;;;7.70;;
4957;SDS011;2494;51.872;9.688;2023-05-31T02:32:46;8.67;;;6.70;;
4957;SDS011;2494;51.872;9.688;2023-05-31T02:35:31;8.90;;;6.30;;
4957;SDS011;2494;51.872;9.688;2023-05-31T02:38:16;7.97;;;6.90;;
4957;SDS011;2494;51.872;9.688;2023-05-31T02:41:01;11.17;;;7.10;;
4957;SDS011;2494;51.872;9.688;2023-05-31T02:43:46;8.13;;;7.30;;
4957;SDS011;2494;51.872;9.688;2023-05-31T02:46:31;10.70;;;7.10;;
4957;SDS011;2494;51.872;9.688;2023-05-31T02:49:17;7.13;;;6.47;;
4957;SDS011;2494;51.872;9.688;2023-05-31T02:52:03;7.27;;;6.40;;
4957;SDS011;2494;51.872;9.688;2023-05-31T02:54:48;11.73;;;7.63;;
4957;SDS011;2494;51.872;9.688;2023-05-31T02:57:33;10.20;;;7.67;;
4957;SDS011;2494;51.872;9.688;2023-05-31T03:00:18;13.77;;;6.97;;
4957;SDS011;2494;51.872;9.688;2023-05-31T03:03:04;11.47;;;6.90;;
4957;SDS011;2494;51.872;9.688;2023-05-31T03:05:50;7.63;;;6.87;;
4957;SDS011;2494;51.872;9.688;2023-05-31T03:08:36;10.70;;;7.57;;
4957;SDS011;2494;51.872;9.688;2023-05-31T03:11:20;8.67;;;6.13;;
4957;SDS011;2494;51.872;9.688;2023-05-31T03:14:05;8.23;;;7.47;;
4957;SDS011;2494;51.872;9.688;2023-05-31T03:16:50;12.20;;;7.80;;
4957;SDS011;2494;51.872;9.688;2023-05-31T03:19:35;8.37;;;6.07;;
4957;SDS011;2494;51.872;9.688;2023-05-31T03:22:21;7.37;;;6.60;;
4957;SDS011;2494;51.872;9.688;2023-05-31T03:25:07;11.57;;;6.20;;
4957;SDS011;2494;51.872;9.688;2023-05-31T03:27:52;9.50;;;6.63;;
4957;SDS011;2494;51.872;9.688;2023-05-31T03:30:37;9.97;;;6.30;;
4957;SDS011;2494;51.872;9.688;2023-05-31T03:33:22;13.43;;;6.43;;
4957;SDS011;2494;51.872;9.688;2023-05-31T03:36:07;7.03;;;6.33;;
4957;SDS011;2494;51.872;9.688;2023-05-31T03:38:53;6.70;;;5.93;;
4957;SDS011;2494;51.872;9.688;2023-05-31T03:41:39;13.53;;;6.43;;
4957;SDS011;2494;51.872;9.688;2023-05-31T03:44:23;10.53;;;6.77;;
4957;SDS011;2494;51.872;9.688;2023-05-31T03:47:08;9.87;;;6.83;;
4957;SDS011;2494;51.872;9.688;2023-05-31T03:49:54;7.47;;;5.87;;
4957;SDS011;2494;51.872;9.688;2023-05-31T03:52:39;8.70;;;7.07;;
4957;SDS011;2494;51.872;9.688;2023-05-31T03:55:25;7.00;;;6.30;;
4957;SDS011;2494;51.872;9.688;2023-05-31T03:58:11;7.60;;;6.60;;
4957;SDS011;2494;51.872;9.688;2023-05-31T04:00:57;6.77;;;5.57;;
4957;SDS011;2494;51.872;9.688;2023-05-31T04:03:42;8.30;;;6.17;;
4957;SDS011;2494;51.872;9.688;2023-05-31T04:06:27;8.43;;;6.47;;
4957;SDS011;2494;51.872;9.688;2023-05-31T04:09:12;6.63;;;5.93;;
4957;SDS011;2494;51.872;9.688;2023-05-31T04:11:58;9.07;;;5.83;;
4957;SDS011;2494;51.872;9.688;2023-05-31T04:14:44;10.03;;;5.83;;
4957;SDS011;2494;51.872;9.688;2023-05-31T04:17:29;6.83;;;5.73;;
4957;SDS011;2494;51.872;9.688;2023-05-31T04:20:14;7.37;;;5.40;;
4957;SDS011;2494;51.872;9.688;2023-05-31T04:23:00;5.00;;;4.50;;
4957;SDS011;2494;51.872;9.688;2023-05-31T04:25:45;4.53;;;4.23;;
4957;SDS011;2494;51.872;9.688;2023-05-31T04:28:32;4.70;;;4.30;;
4957;SDS011;2494;51.872;9.688;2023-05-31T04:31:18;3.87;;;3.60;;
4957;SDS011;2494;51.872;9.688;2023-05-31T04:34:03;5.00;;;4.30;;
4957;SDS011;2494;51.872;9.688;2023-05-31T04:36:48;5.03;;;4.60;;
4957;SDS011;2494;51.872;9.688;2023-05-31T04:39:35;4.87;;;4.57;;
4957;SDS011;2494;51.872;9.688;2023-05-31T04:42:20;5.40;;;4.90;;
4957;SDS011;2494;51.872;9.688;2023-05-31T04:45:09;5.10;;;4.40;;
4957;SDS011;2494;51.872;9.688;2023-05-31T04:47:55;4.40;;;3.57;;
4957;SDS011;2494;51.872;9.688;2023-05-31T04:50:41;4.03;;;3.73;;
4957;SDS011;2494;51.872;9.688;2023-05-31T04:53:26;4.47;;;4.00;;
4957;SDS011;2494;51.872;9.688;2023-05-31T04:56:11;4.83;;;4.50;;
4957;SDS011;2494;51.872;9.688;2023-05-31T04:58:56;5.87;;;5.40;;
4957;SDS011;2494;51.872;9.688;2023-05-31T05:01:43;4.10;;;3.80;;
4957;SDS011;2494;51.872;9.688;2023-05-31T05:04:28;4.10;;;3.70;;
4957;SDS011;2494;51.872;9.688;2023-05-31T05:07:13;4.53;;;4.23;;
4957;SDS011;2494;51.872;9.688;2023-05-31T05:09:58;4.80;;;4.30;;
4957;SDS011;2494;51.872;9.688;2023-05-31T05:12:43;5.50;;;5.07;;
4957;SDS011;2494;51.872;9.688;2023-05-31T05:15:28;6.30;;;4.50;;
4957;SDS011;2494;51.872;9.688;2023-05-31T05:18:14;4.83;;;4.47;;
4957;SDS011;2494;51.872;9.688;2023-05-31T05:20:59;5.40;;;3.97;;
4957;SDS011;2494;51.872;9.688;2023-05-31T05:23:45;4.57;;;4.00;;
4957;SDS011;2494;51.872;9.688;2023-05-31T05:26:30;3.97;;;3.43;;
4957;SDS011;2494;51.872;9.688;2023-05-31T05:29:15;4.60;;;3.47;;
4957;SDS011;2494;51.872;9.688;2023-05-31T05:32:00;4.67;;;4.17;;
4957;SDS011;2494;51.872;9.688;2023-05-31T05:34:47;5.97;;;4.20;;
4957;SDS011;2494;51.872;9.688;2023-05-31T05:37:32;4.60;;;4.20;;
4957;SDS011;2494;51.872;9.688;2023-05-31T05:40:17;3.97;;;3.63;;
4957;SDS011;2494;51.872;9.688;2023-05-31T05:43:03;4.80;;;3.73;;
4957;SDS011;2494;51.872;9.688;2023-05-31T05:45:48;3.83;;;3.53;;
4957;SDS011;2494;51.872;9.688;2023-05-31T05:48:33;5.00;;;4.30;;
4957;SDS011;2494;51.872;9.688;2023-05-31T05:51:19;4.83;;;3.50;;
4957;SDS011;2494;51.872;9.688;2023-05-31T05:54:04;3.07;;;2.87;;
4957;SDS011;2494;51.872;9.688;2023-05-31T05:56:49;4.10;;;3.80;;
4957;SDS011;2494;51.872;9.688;2023-05-31T05:59:34;5.17;;;4.00;;
4957;SDS011;2494;51.872;9.688;2023-05-31T06:02:21;3.70;;;3.33;;
4957;SDS011;2494;51.872;9.688;2023-05-31T06:05:07;6.23;;;4.00;;
4957;SDS011;2494;51.872;9.688;2023-05-31T06:07:54;3.27;;;2.77;;
4957;SDS011;2494;51.872;9.688;2023-05-31T06:10:39;6.93;;;3.50;;
4957;SDS011;2494;51.872;9.688;2023-05-31T06:13:25;3.83;;;3.10;;
4957;SDS011;2494;51.872;9.688;2023-05-31T06:16:10;8.90;;;3.80;;
4957;SDS011;2494;51.872;9.688;2023-05-31T06:18:55;5.00;;;3.27;;
4957;SDS011;2494;51.872;9.688;2023-05-31T06:21:40;3.43;;;3.13;;
4957;SDS011;2494;51.872;9.688;2023-05-31T06:24:26;4.93;;;3.50;;
4957;SDS011;2494;51.872;9.688;2023-05-31T06:27:11;8.13;;;3.33;;
4957;SDS011;2494;51.872;9.688;2023-05-31T06:29:58;5.33;;;3.23;;
4957;SDS011;2494;51.872;9.688;2023-05-31T06:32:44;3.80;;;3.10;;
4957;SDS011;2494;51.872;9.688;2023-05-31T06:35:29;6.30;;;2.70;;
4957;SDS011;2494;51.872;9.688;2023-05-31T06:38:15;3.50;;;3.20;;
4957;SDS011;2494;51.872;9.688;2023-05-31T06:41:02;3.10;;;2.67;;
4957;SDS011;2494;51.872;9.688;2023-05-31T06:43:49;3.77;;;2.90;;
4957;SDS011;2494;51.872;9.688;2023-05-31T06:46:34;2.80;;;2.60;;
4957;SDS011;2494;51.872;9.688;2023-05-31T06:49:19;4.47;;;2.83;;
4957;SDS011;2494;51.872;9.688;2023-05-31T06:52:04;3.73;;;3.43;;
4957;SDS011;2494;51.872;9.688;2023-05-31T06:54:50;3.40;;;3.17;;
4957;SDS011;2494;51.872;9.688;2023-05-31T06:57:37;3.90;;;3.07;;
4957;SDS011;2494;51.872;9.688;2023-05-31T07:00:22;2.80;;;2.50;;
4957;SDS011;2494;51.872;9.688;2023-05-31T07:03:07;2.90;;;2.70;;
4957;SDS011;2494;51.872;9.688;2023-05-31T07:05:53;2.70;;;2.50;;
4957;SDS011;2494;51.872;9.688;2023-05-31T07:08:38;5.20;;;3.00;;
4957;SDS011;2494;51.872;9.688;2023-05-31T07:11:24;4.50;;;2.90;;
4957;SDS011;2494;51.872;9.688;2023-05-31T07:14:11;2.67;;;2.30;;
4957;SDS011;2494;51.872;9.688;2023-05-31T07:16:56;3.80;;;3.50;;
4957;SDS011;2494;51.872;9.688;2023-05-31T07:19:45;4.93;;;2.50;;
4957;SDS011;2494;51.872;9.688;2023-05-31T07:22:30;4.00;;;3.03;;
4957;SDS011;2494;51.872;9.688;2023-05-31T07:25:15;2.97;;;2.40;;
4957;SDS011;2494;51.872;9.688;2023-05-31T07:28:00;2.80;;;1.97;;
4957;SDS011;2494;51.872;9.688;2023-05-31T07:30:47;3.17;;;2.20;;
4957;SDS011;2494;51.872;9.688;2023-05-31T07:33:32;2.97;;;2.30;;
4957;SDS011;2494;51.872;9.688;2023-05-31T07:36:17;2.80;;;2.20;;
4957;SDS011;2494;51.872;9.688;2023-05-31T07:39:02;2.40;;;2.20;;
4957;SDS011;2494;51.872;9.688;2023-05-31T07:41:49;2.40;;;2.20;;
4957;SDS011;2494;51.872;9.688;2023-05-31T07:44:35;2.37;;;2.17;;
4957;SDS011;2494;51.872;9.688;2023-05-31T07:47:21;2.70;;;2.07;;
4957;SDS011;2494;51.872;9.688;2023-05-31T07:50:07;3.00;;;2.20;;
4957;SDS011;2494;51.872;9.688;2023-05-31T07:52:52;3.90;;;2.63;;
4957;SDS011;2494;51.872;9.688;2023-05-31T07:55:38;2.13;;;1.90;;
4957;SDS011;2494;51.872;9.688;2023-05-31T07:58:24;2.73;;;1.70;;
4957;SDS011;2494;51.872;9.688;2023-05-31T08:01:09;2.80;;;1.90;;
4957;SDS011;2494;51.872;9.688;2023-05-31T08:04:04;3.10;;;2.17;;
4957;SDS011;2494;51.872;9.688;2023-05-31T08:06:50;3.20;;;2.20;;
4957;SDS011;2494;51.872;9.688;2023-05-31T08:09:35;4.97;;;2.10;;
4957;SDS011;2494;51.872;9.688;2023-05-31T08:12:20;2.87;;;1.90;;
4957;SDS011;2494;51.872;9.688;2023-05-31T08:15:06;2.57;;;1.90;;
4957;SDS011;2494;51.872;9.688;2023-05-31T08:17:51;2.67;;;2.00;;
4957;SDS011;2494;51.872;9.688;2023-05-31T08:20:38;4.83;;;2.20;;
4957;SDS011;2494;51.872;9.688;2023-05-31T08:23:24;5.03;;;2.10;;
4957;SDS011;2494;51.872;9.688;2023-05-31T08:26:09;2.80;;;2.20;;
4957;SDS011;2494;51.872;9.688;2023-05-31T08:28:54;2.80;;;2.00;;
4957;SDS011;2494;51.872;9.688;2023-05-31T08:31:40;3.07;;;2.77;;
4957;SDS011;2494;51.872;9.688;2023-05-31T08:34:25;2.43;;;1.70;;
4957;SDS011;2494;51.872;9.688;2023-05-31T08:37:12;1.83;;;1.43;;
4957;SDS011;2494;51.872;9.688;2023-05-31T08:39:57;1.87;;;1.63;;
4957;SDS011;2494;51.872;9.688;2023-05-31T08:42:45;2.10;;;1.73;;
4957;SDS011;2494;51.872;9.688;2023-05-31T08:45:32;2.13;;;1.73;;
4957;SDS011;2494;51.872;9.688;2023-05-31T08:48:21;2.77;;;2.20;;
4957;SDS011;2494;51.872;9.688;2023-05-31T08:51:09;2.10;;;1.90;;
4957;SDS011;2494;51.872;9.688;2023-05-31T08:53:56;2.50;;;1.70;;
4957;SDS011;2494;51.872;9.688;2023-05-31T08:56:42;3.90;;;2.37;;
4957;SDS011;2494;51.872;9.688;2023-05-31T08:59:29;1.80;;;1.60;;
4957;SDS011;2494;51.872;9.688;2023-05-31T09:02:14;2.10;;;1.70;;
4957;SDS011;2494;51.872;9.688;2023-05-31T09:05:00;2.10;;;1.90;;
4957;SDS011;2494;51.872;9.688;2023-05-31T09:07:46;4.00;;;1.77;;
4957;SDS011;2494;51.872;9.688;2023-05-31T09:10:35;4.30;;;2.00;;
4957;SDS011;2494;51.872;9.688;2023-05-31T09:13:20;2.77;;;1.80;;
4957;SDS011;2494;51.872;9.688;2023-05-31T09:16:05;3.00;;;2.27;;
4957;SDS011;2494;51.872;9.688;2023-05-31T09:18:58;2.53;;;1.83;;
4957;SDS011;2494;51.872;9.688;2023-05-31T09:21:44;2.87;;;1.93;;
4957;SDS011;2494;51.872;9.688;2023-05-31T09:24:29;2.70;;;1.70;;
4957;SDS011;2494;51.872;9.688;2023-05-31T09:27:16;2.73;;;2.00;;
4957;SDS011;2494;51.872;9.688;2023-05-31T09:30:03;3.20;;;1.90;;
4957;SDS011;2494;51.872;9.688;2023-05-31T09:32:51;2.30;;;1.83;;
4957;SDS011;2494;51.872;9.688;2023-05-31T09:35:37;1.83;;;1.60;;
4957;SDS011;2494;51.872;9.688;2023-05-31T09:38:23;2.43;;;1.80;;
4957;SDS011;2494;51.872;9.688;2023-05-31T09:41:18;2.90;;;1.50;;
4957;SDS011;2494;51.872;9.688;2023-05-31T09:44:04;3.60;;;1.80;;
4957;SDS011;2494;51.872;9.688;2023-05-31T09:46:52;4.50;;;2.17;;
4957;SDS011;2494;51.872;9.688;2023-05-31T09:49:38;1.97;;;1.63;;
4957;SDS011;2494;51.872;9.688;2023-05-31T09:52:24;3.67;;;1.47;;
4957;SDS011;2494;51.872;9.688;2023-05-31T09:55:11;5.87;;;2.10;;
4957;SDS011;2494;51.872;9.688;2023-05-31T09:57:56;2.17;;;1.97;;
4957;SDS011;2494;51.872;9.688;2023-05-31T10:00:44;2.60;;;1.73;;
4957;SDS011;2494;51.872;9.688;2023-05-31T10:03:31;2.80;;;1.50;;
4957;SDS011;2494;51.872;9.688;2023-05-31T10:06:17;2.20;;;1.57;;
4957;SDS011;2494;51.872;9.688;2023-05-31T10:09:03;2.83;;;2.03;;
4957;SDS011;2494;51.872;9.688;2023-05-31T10:11:50;6.43;;;2.53;;
4957;SDS011;2494;51.872;9.688;2023-05-31T10:14:36;2.23;;;1.73;;
4957;SDS011;2494;51.872;9.688;2023-05-31T10:17:25;4.00;;;1.90;;
4957;SDS011;2494;51.872;9.688;2023-05-31T10:20:13;2.87;;;1.90;;
4957;SDS011;2494;51.872;9.688;2023-05-31T10:23:01;2.60;;;1.80;;
4957;SDS011;2494;51.872;9.688;2023-05-31T10:25:57;1.97;;;1.60;;
4957;SDS011;2494;51.872;9.688;2023-05-31T10:28:45;3.00;;;1.97;;
4957;SDS011;2494;51.872;9.688;2023-05-31T10:31:33;3.97;;;1.60;;
4957;SDS011;2494;51.872;9.688;2023-05-31T10:34:24;3.30;;;1.80;;
4957;SDS011;2494;51.872;9.688;2023-05-31T10:37:09;4.67;;;1.80;;
4957;SDS011;2494;51.872;9.688;2023-05-31T10:39:55;4.47;;;1.90;;
4957;SDS011;2494;51.872;9.688;2023-05-31T10:42:45;2.67;;;2.13;;
4957;SDS011;2494;51.872;9.688;2023-05-31T10:45:34;2.37;;;1.70;;
4957;SDS011;2494;51.872;9.688;2023-05-31T10:48:23;2.07;;;1.87;;
4957;SDS011;2494;51.872;9.688;2023-05-31T10:51:12;2.57;;;2.20;;
4957;SDS011;2494;51.872;9.688;2023-05-31T10:54:00;2.67;;;1.90;;
4957;SDS011;2494;51.872;9.688;2023-05-31T10:56:51;4.20;;;2.37;;
4957;SDS011;2494;51.872;9.688;2023-05-31T10:59:39;3.13;;;1.90;;
4957;SDS011;2494;51.872;9.688;2023-05-31T11:02:26;3.13;;;2.20;;
4957;SDS011;2494;51.872;9.688;2023-05-31T11:05:20;2.60;;;1.60;;
4957;SDS011;2494;51.872;9.688;2023-05-31T11:08:07;2.53;;;2.00;;
4957;SDS011;2494;51.872;9.688;2023-05-31T11:14:01;5.87;;;2.63;;
4957;SDS011;2494;51.872;9.688;2023-05-31T11:19:51;4.13;;;2.30;;
4957;SDS011;2494;51.872;9.688;2023-05-31T11:22:36;6.80;;;2.43;;
4957;SDS011;2494;51.872;9.688;2023-05-31T11:25:23;7.70;;;2.80;;
4957;SDS011;2494;51.872;9.688;2023-05-31T11:28:09;4.10;;;2.23;;
4957;SDS011;2494;51.872;9.688;2023-05-31T11:30:54;3.30;;;2.40;;
4957;SDS011;2494;51.872;9.688;2023-05-31T11:33:43;3.73;;;1.90;;
4957;SDS011;2494;51.872;9.688;2023-05-31T11:36:28;5.00;;;2.90;;
4957;SDS011;2494;51.872;9.688;2023-05-31T11:39:15;2.50;;;2.20;;
4957;SDS011;2494;51.872;9.688;2023-05-31T11:42:02;4.27;;;2.83;;
4957;SDS011;2494;51.872;9.688;2023-05-31T11:44:47;3.77;;;1.80;;
4957;SDS011;2494;51.872;9.688;2023-05-31T11:47:36;3.80;;;2.10;;
4957;SDS011;2494;51.872;9.688;2023-05-31T11:50:24;3.97;;;2.10;;
4957;SDS011;2494;51.872;9.688;2023-05-31T11:53:10;3.80;;;1.80;;
4957;SDS011;2494;51.872;9.688;2023-05-31T11:55:55;1.77;;;1.60;;
4957;SDS011;2494;51.872;9.688;2023-05-31T11:58:46;6.07;;;2.40;;
4957;SDS011;2494;51.872;9.688;2023-05-31T12:01:34;2.60;;;1.70;;
4957;SDS011;2494;51.872;9.688;2023-05-31T12:04:19;3.17;;;1.70;;
4957;SDS011;2494;51.872;9.688;2023-05-31T12:07:05;2.77;;;2.30;;
4957;SDS011;2494;51.872;9.688;2023-05-31T12:09:50;9.60;;;2.37;;
4957;SDS011;2494;51.872;9.688;2023-05-31T12:12:37;4.23;;;2.27;;
4957;SDS011;2494;51.872;9.688;2023-05-31T12:15:24;4.10;;;2.90;;
4957;SDS011;2494;51.872;9.688;2023-05-31T12:18:11;3.80;;;2.10;;
4957;SDS011;2494;51.872;9.688;2023-05-31T12:20:56;3.77;;;2.00;;
4957;SDS011;2494;51.872;9.688;2023-05-31T12:23:51;7.13;;;3.73;;
4957;SDS011;2494;51.872;9.688;2023-05-31T12:26:37;4.80;;;2.70;;
4957;SDS011;2494;51.872;9.688;2023-05-31T12:29:25;7.53;;;2.17;;
4957;SDS011;2494;51.872;9.688;2023-05-31T12:32:12;1.90;;;1.60;;
4957;SDS011;2494;51.872;9.688;2023-05-31T12:35:04;3.33;;;1.70;;
4957;SDS011;2494;51.872;9.688;2023-05-31T12:37:50;3.10;;;2.20;;
4957;SDS011;2494;51.872;9.688;2023-05-31T12:40:40;5.13;;;2.53;;
4957;SDS011;2494;51.872;9.688;2023-05-31T12:43:25;3.20;;;2.50;;
4957;SDS011;2494;51.872;9.688;2023-05-31T12:46:10;3.67;;;2.00;;
4957;SDS011;2494;51.872;9.688;2023-05-31T12:49:11;2.70;;;2.30;;
4957;SDS011;2494;51.872;9.688;2023-05-31T12:51:56;3.40;;;2.37;;
4957;SDS011;2494;51.872;9.688;2023-05-31T12:54:42;6.50;;;1.90;;
4957;SDS011;2494;51.872;9.688;2023-05-31T12:57:29;3.97;;;2.00;;
4957;SDS011;2494;51.872;9.688;2023-05-31T13:00:15;1.90;;;1.80;;
4957;SDS011;2494;51.872;9.688;2023-05-31T13:03:00;5.20;;;2.10;;
4957;SDS011;2494;51.872;9.688;2023-05-31T13:05:47;2.33;;;1.80;;
4957;SDS011;2494;51.872;9.688;2023-05-31T13:08:32;2.43;;;1.90;;
4957;SDS011;2494;51.872;9.688;2023-05-31T13:11:17;4.70;;;1.83;;
4957;SDS011;2494;51.872;9.688;2023-05-31T13:14:03;2.43;;;1.83;;
4957;SDS011;2494;51.872;9.688;2023-05-31T13:16:48;1.97;;;1.60;;
4957;SDS011;2494;51.872;9.688;2023-05-31T13:19:33;2.60;;;1.70;;
4957;SDS011;2494;51.872;9.688;2023-05-31T13:22:20;3.30;;;1.60;;
4957;SDS011;2494;51.872;9.688;2023-05-31T13:25:05;2.50;;;2.00;;
4957;SDS011;2494;51.872;9.688;2023-05-31T13:27:51;4.07;;;1.70;;
4957;SDS011;2494;51.872;9.688;2023-05-31T13:30:36;3.03;;;1.83;;
4957;SDS011;2494;51.872;9.688;2023-05-31T13:33:21;7.90;;;2.40;;
4957;SDS011;2494;51.872;9.688;2023-05-31T13:36:09;5.00;;;2.10;;
4957;SDS011;2494;51.872;9.688;2023-05-31T13:38:55;3.93;;;2.07;;
4957;SDS011;2494;51.872;9.688;2023-05-31T13:41:41;3.30;;;1.60;;
4957;SDS011;2494;51.872;9.688;2023-05-31T13:44:26;2.43;;;1.60;;
4957;SDS011;2494;51.872;9.688;2023-05-31T13:47:11;5.57;;;1.60;;
4957;SDS011;2494;51.872;9.688;2023-05-31T13:49:56;2.80;;;1.53;;
4957;SDS011;2494;51.872;9.688;2023-05-31T13:52:41;3.70;;;1.90;;
4957;SDS011;2494;51.872;9.688;2023-05-31T13:55:28;2.23;;;2.00;;
4957;SDS011;2494;51.872;9.688;2023-05-31T13:58:13;5.40;;;1.73;;
4957;SDS011;2494;51.872;9.688;2023-05-31T14:00:58;2.47;;;1.70;;
4957;SDS011;2494;51.872;9.688;2023-05-31T14:03:44;9.17;;;1.80;;
4957;SDS011;2494;51.872;9.688;2023-05-31T14:06:30;3.17;;;1.60;;
4957;SDS011;2494;51.872;9.688;2023-05-31T14:09:15;4.70;;;1.77;;
4957;SDS011;2494;51.872;9.688;2023-05-31T14:12:03;4.63;;;2.00;;
4957;SDS011;2494;51.872;9.688;2023-05-31T14:14:49;2.90;;;1.70;;
4957;SDS011;2494;51.872;9.688;2023-05-31T14:17:34;2.13;;;1.30;;
4957;SDS011;2494;51.872;9.688;2023-05-31T14:20:19;3.67;;;1.37;;
4957;SDS011;2494;51.872;9.688;2023-05-31T14:23:05;1.67;;;1.57;;
4957;SDS011;2494;51.872;9.688;2023-05-31T14:25:50;2.17;;;1.90;;
4957;SDS011;2494;51.872;9.688;2023-05-31T14:28:36;2.20;;;1.73;;
4957;SDS011;2494;51.872;9.688;2023-05-31T14:31:21;4.60;;;1.83;;
4957;SDS011;2494;51.872;9.688;2023-05-31T14:34:06;3.60;;;1.80;;
4957;SDS011;2494;51.872;9.688;2023-05-31T14:36:51;3.87;;;1.63;;
4957;SDS011;2494;51.872;9.688;2023-05-31T14:39:37;1.80;;;1.70;;
4957;SDS011;2494;51.872;9.688;2023-05-31T14:42:22;1.60;;;1.47;;
4957;SDS011;2494;51.872;9.688;2023-05-31T14:45:09;3.73;;;1.53;;
4957;SDS011;2494;51.872;9.688;2023-05-31T14:47:55;2.07;;;1.57;;
4957;SDS011;2494;51.872;9.688;2023-05-31T14:50:43;1.77;;;1.43;;
4957;SDS011;2494;51.872;9.688;2023-05-31T14:53:27;2.40;;;1.63;;
4957;SDS011;2494;51.872;9.688;2023-05-31T14:56:12;1.80;;;1.70;;
4957;SDS011;2494;51.872;9.688;2023-05-31T14:58:58;1.80;;;1.50;;
4957;SDS011;2494;51.872;9.688;2023-05-31T15:01:45;2.13;;;1.77;;
4957;SDS011;2494;51.872;9.688;2023-05-31T15:04:30;2.23;;;1.47;;
4957;SDS011;2494;51.872;9.688;2023-05-31T15:07:15;2.20;;;1.60;;
4957;SDS011;2494;51.872;9.688;2023-05-31T15:10:00;1.83;;;1.30;;
4957;SDS011;2494;51.872;9.688;2023-05-31T15:12:46;3.20;;;1.43;;
4957;SDS011;2494;51.872;9.688;2023-05-31T15:15:32;2.50;;;1.67;;
4957;SDS011;2494;51.872;9.688;2023-05-31T15:18:18;1.77;;;1.57;;
4957;SDS011;2494;51.872;9.688;2023-05-31T15:21:03;1.60;;;1.50;;
4957;SDS011;2494;51.872;9.688;2023-05-31T15:23:50;2.23;;;1.63;;
4957;SDS011;2494;51.872;9.688;2023-05-31T15:26:36;4.50;;;1.70;;
4957;SDS011;2494;51.872;9.688;2023-05-31T15:29:21;1.90;;;1.43;;
4957;SDS011;2494;51.872;9.688;2023-05-31T15:32:06;1.70;;;1.60;;
4957;SDS011;2494;51.872;9.688;2023-05-31T15:34:53;3.20;;;1.60;;
4957;SDS011;2494;51.872;9.688;2023-05-31T15:37:38;4.03;;;1.40;;
4957;SDS011;2494;51.872;9.688;2023-05-31T15:40:23;1.83;;;1.60;;
4957;SDS011;2494;51.872;9.688;2023-05-31T15:43:08;3.33;;;1.60;;
4957;SDS011;2494;51.872;9.688;2023-05-31T15:45:53;4.40;;;1.60;;
4957;SDS011;2494;51.872;9.688;2023-05-31T15:48:39;1.97;;;1.50;;
4957;SDS011;2494;51.872;9.688;2023-05-31T15:51:26;2.80;;;1.60;;
4957;SDS011;2494;51.872;9.688;2023-05-31T15:54:11;2.20;;;1.60;;
4957;SDS011;2494;51.872;9.688;2023-05-31T15:56:56;1.87;;;1.20;;
4957;SDS011;2494;51.872;9.688;2023-05-31T15:59:41;3.17;;;1.50;;
4957;SDS011;2494;51.872;9.688;2023-05-31T16:02:26;2.10;;;1.23;;
4957;SDS011;2494;51.872;9.688;2023-05-31T16:05:11;2.30;;;1.60;;
4957;SDS011;2494;51.872;9.688;2023-05-31T16:08:00;1.80;;;1.70;;
4957;SDS011;2494;51.872;9.688;2023-05-31T16:10:48;1.37;;;1.27;;
4957;SDS011;2494;51.872;9.688;2023-05-31T16:13:35;2.73;;;1.50;;
4957;SDS011;2494;51.872;9.688;2023-05-31T16:16:20;3.83;;;1.70;;
4957;SDS011;2494;51.872;9.688;2023-05-31T16:19:05;8.67;;;1.50;;
4957;SDS011;2494;51.872;9.688;2023-05-31T16:21:51;4.50;;;1.67;;
4957;SDS011;2494;51.872;9.688;2023-05-31T16:24:37;3.43;;;1.97;;
4957;SDS011;2494;51.872;9.688;2023-05-31T16:27:23;2.33;;;2.13;;
4957;SDS011;2494;51.872;9.688;2023-05-31T16:30:09;3.97;;;2.03;;
4957;SDS011;2494;51.872;9.688;2023-05-31T16:32:54;2.83;;;1.70;;
4957;SDS011;2494;51.872;9.688;2023-05-31T16:35:39;2.80;;;1.90;;
4957;SDS011;2494;51.872;9.688;2023-05-31T16:38:24;3.27;;;1.83;;
4957;SDS011;2494;51.872;9.688;2023-05-31T16:41:11;3.30;;;1.60;;
4957;SDS011;2494;51.872;9.688;2023-05-31T16:43:56;2.53;;;1.70;;
4957;SDS011;2494;51.872;9.688;2023-05-31T16:46:42;2.63;;;1.47;;
4957;SDS011;2494;51.872;9.688;2023-05-31T16:49:27;1.23;;;1.13;;
4957;SDS011;2494;51.872;9.688;2023-05-31T16:52:12;2.27;;;1.47;;
4957;SDS011;2494;51.872;9.688;2023-05-31T16:54:57;1.60;;;1.50;;
4957;SDS011;2494;51.872;9.688;2023-05-31T16:57:44;2.33;;;1.63;;
4957;SDS011;2494;51.872;9.688;2023-05-31T17:00:29;7.40;;;1.70;;
4957;SDS011;2494;51.872;9.688;2023-05-31T17:03:14;2.97;;;1.47;;
4957;SDS011;2494;51.872;9.688;2023-05-31T17:05:59;1.77;;;1.50;;
4957;SDS011;2494;51.872;9.688;2023-05-31T17:08:44;3.03;;;1.50;;
4957;SDS011;2494;51.872;9.688;2023-05-31T17:11:29;3.80;;;1.80;;
4957;SDS011;2494;51.872;9.688;2023-05-31T17:14:16;3.10;;;2.00;;